Time;durP1;ratioP1;P1;durP2;ratioP2;P2;SDS_P1;SDS_P2;PMS_P1;PMS_P2;Temp;Humidity;BMP_temperature;BMP_pressure;BME280_temperature;BME280_humidity;BME280_pressure;Samples;Min_cycle;Max_cycle;Signal;HPM_P1;HPM_P2
2022/08/10 00:01:13;;;;;;;3.63;3.43;;;18.70;1.00;;;;;;6278624;28;20718;-60
2022/08/10 00:04:16;;;;;;;4.20;3.37;;;18.70;1.00;;;;;;6276110;28;20610;-55
2022/08/10 00:07:25;;;;;;;4.07;3.80;;;18.70;1.00;;;;;;6282896;28;20599;-55
2022/08/10 00:10:28;;;;;;;3.40;3.10;;;18.70;1.00;;;;;;6281819;28;20428;-54
2022/08/10 00:13:30;;;;;;;4.20;3.60;;;18.60;1.00;;;;;;6262948;28;20241;-54
2022/08/10 00:16:33;;;;;;;3.50;3.30;;;18.70;1.00;;;;;;6282242;28;20328;-54
2022/08/10 00:19:36;;;;;;;4.67;3.80;;;18.60;1.00;;;;;;6259652;28;20230;-53
2022/08/10 00:23:00;;;;;;;4.10;3.80;;;18.60;1.00;;;;;;6258449;28;20535;-55
2022/08/10 00:26:04;;;;;;;6.57;4.07;;;18.50;1.00;;;;;;6253177;28;20234;-55
2022/08/10 00:29:07;;;;;;;3.80;3.60;;;18.50;1.00;;;;;;6256913;28;20238;-51
2022/08/10 00:32:13;;;;;;;4.00;3.70;;;18.40;1.00;;;;;;6261457;28;20226;-55
2022/08/10 00:35:16;;;;;;;4.17;3.77;;;18.40;1.00;;;;;;6285945;28;20818;-53
2022/08/10 00:38:20;;;;;;;3.90;3.77;;;18.40;1.00;;;;;;6281845;28;20269;-53
2022/08/10 00:41:23;;;;;;;4.10;3.50;;;18.30;1.00;;;;;;6264259;28;20628;-54
2022/08/10 00:44:26;;;;;;;4.23;3.80;;;18.30;1.00;;;;;;6280555;28;20257;-55
2022/08/10 00:47:29;;;;;;;5.03;3.63;;;18.20;1.00;;;;;;6285459;28;20324;-54
2022/08/10 00:50:39;;;;;;;4.40;4.00;;;18.20;1.00;;;;;;6265726;28;20238;-54
2022/08/10 00:53:43;;;;;;;3.80;3.60;;;18.20;1.00;;;;;;6264515;28;20257;-54
2022/08/10 00:56:46;;;;;;;5.43;3.80;;;18.10;1.00;;;;;;6261415;28;20245;-55
2022/08/10 01:00:10;;;;;;;4.07;3.70;;;18.10;1.00;;;;;;6260649;28;20241;-54
2022/08/10 01:03:13;;;;;;;4.00;3.70;;;18.10;1.00;;;;;;6270438;28;20739;-54
2022/08/10 01:06:28;;;;;;;4.03;3.87;;;18.00;1.00;;;;;;6280145;28;20366;-55
2022/08/10 01:09:39;;;;;;;4.40;4.10;;;18.00;1.00;;;;;;6285928;28;20635;-55
2022/08/10 01:12:50;;;;;;;4.37;4.07;;;17.90;1.00;;;;;;6286032;28;20352;-55
2022/08/10 01:15:59;;;;;;;4.73;4.27;;;18.00;1.00;;;;;;6280396;28;20271;-53
2022/08/10 01:19:15;;;;;;;5.17;4.27;;;17.90;1.00;;;;;;6285517;28;20340;-55
2022/08/10 01:22:32;;;;;;;7.03;4.90;;;17.80;1.00;;;;;;6274524;28;20230;-54
2022/08/10 01:26:18;;;;;;;4.00;3.80;;;17.80;1.00;;;;;;6260984;28;20767;-55
2022/08/10 01:30:03;;;;;;;3.93;3.73;;;17.80;1.00;;;;;;6260682;28;20687;-55
2022/08/10 01:33:10;;;;;;;4.10;3.70;;;17.80;1.00;;;;;;6267963;28;20396;-54
2022/08/10 01:36:17;;;;;;;4.30;4.10;;;17.70;1.00;;;;;;6285701;28;20237;-55
2022/08/10 01:39:23;;;;;;;4.67;4.37;;;17.70;1.00;;;;;;6280720;28;20479;-54
2022/08/10 01:42:32;;;;;;;4.93;4.53;;;17.70;1.00;;;;;;6277870;28;20918;-54
2022/08/10 01:45:41;;;;;;;6.77;4.63;;;17.70;1.00;;;;;;6285195;28;20482;-54
2022/08/10 01:48:50;;;;;;;4.60;4.40;;;17.60;1.00;;;;;;6275814;28;20313;-55
2022/08/10 01:51:58;;;;;;;4.83;3.93;;;17.60;1.00;;;;;;6260810;28;20402;-55
2022/08/10 01:55:04;;;;;;;4.37;4.13;;;17.60;1.00;;;;;;6255784;28;20292;-54
2022/08/10 01:58:08;;;;;;;5.00;4.60;;;17.50;1.00;;;;;;6259952;28;20769;-54
2022/08/10 02:01:17;;;;;;;4.57;4.33;;;17.50;1.00;;;;;;6259585;28;20238;-55
2022/08/10 02:04:20;;;;;;;6.63;4.87;;;17.50;1.00;;;;;;6277755;28;20429;-55
2022/08/10 02:07:26;;;;;;;5.60;5.20;;;17.50;1.00;;;;;;6283283;28;20259;-55
2022/08/10 02:10:30;;;;;;;6.03;4.90;;;17.40;1.00;;;;;;6284225;28;20237;-54
2022/08/10 02:13:34;;;;;;;5.43;4.87;;;17.40;1.00;;;;;;6284208;28;20328;-55
2022/08/10 02:16:41;;;;;;;6.77;5.30;;;17.40;1.00;;;;;;6276983;28;20236;-54
2022/08/10 02:19:46;;;;;;;5.20;4.90;;;17.40;1.00;;;;;;6268665;28;20283;-54
2022/08/10 02:22:52;;;;;;;5.93;5.10;;;17.40;1.00;;;;;;6259427;28;20749;-54
2022/08/10 02:25:58;;;;;;;6.87;5.77;;;17.30;1.00;;;;;;6259582;28;20232;-54
2022/08/10 02:29:02;;;;;;;5.90;5.50;;;17.30;1.00;;;;;;6272235;28;20283;-55
2022/08/10 02:32:07;;;;;;;5.90;5.50;;;17.20;1.00;;;;;;6276934;28;20236;-54
2022/08/10 02:35:13;;;;;;;6.47;5.93;;;17.20;1.00;;;;;;6284534;28;20222;-53
2022/08/10 02:38:32;;;;;;;7.07;5.80;;;17.20;1.00;;;;;;6284249;28;20514;-54
2022/08/10 02:41:58;;;;;;;5.83;5.30;;;17.10;1.00;;;;;;6271796;28;20230;-54
2022/08/10 02:45:27;;;;;;;5.97;5.60;;;17.10;1.00;;;;;;6278553;28;20629;-55
2022/08/10 02:48:41;;;;;;;6.20;5.60;;;17.00;1.00;;;;;;6282636;28;20401;-54
2022/08/10 02:51:47;;;;;;;10.10;6.03;;;17.00;1.00;;;;;;6262885;28;20234;-54
2022/08/10 02:55:16;;;;;;;5.80;5.37;;;17.00;1.00;;;;;;6258378;28;20698;-54
2022/08/10 02:58:25;;;;;;;6.07;5.43;;;16.90;1.00;;;;;;6251461;28;20262;-53
2022/08/10 03:01:42;;;;;;;6.37;5.93;;;16.80;1.00;;;;;;6259156;28;20248;-55
2022/08/10 03:04:49;;;;;;;6.10;5.60;;;16.80;1.00;;;;;;6279295;28;20235;-54
2022/08/10 03:08:04;;;;;;;7.80;6.43;;;16.80;1.00;;;;;;6270131;28;20261;-52
2022/08/10 03:11:10;;;;;;;6.33;5.83;;;16.80;1.00;;;;;;6257943;28;20258;-55
2022/08/10 03:14:14;;;;;;;6.17;5.77;;;16.90;1.00;;;;;;6268274;28;20236;-54
2022/08/10 03:17:18;;;;;;;5.87;5.37;;;16.80;1.00;;;;;;6272363;28;20230;-53
2022/08/10 03:20:24;;;;;;;6.57;5.90;;;16.70;1.00;;;;;;6274966;28;20237;-54
2022/08/10 03:23:42;;;;;;;5.93;5.47;;;16.80;1.00;;;;;;6282927;28;20468;-54
2022/08/10 03:26:45;;;;;;;6.10;5.60;;;16.70;1.00;;;;;;6282652;28;20718;-55
2022/08/10 03:29:49;;;;;;;5.67;5.20;;;16.70;1.00;;;;;;6271284;28;20263;-54
2022/08/10 03:33:13;;;;;;;5.77;5.30;;;16.70;1.00;;;;;;6259639;28;20229;-54
2022/08/10 03:36:17;;;;;;;5.97;5.50;;;16.60;1.00;;;;;;6252716;28;20384;-52
2022/08/10 03:39:40;;;;;;;6.50;5.97;;;16.60;1.00;;;;;;6279308;28;20706;-54
2022/08/10 03:42:47;;;;;;;6.10;5.60;;;16.60;1.00;;;;;;6282646;28;20233;-54
2022/08/10 03:45:53;;;;;;;6.60;5.77;;;16.60;1.00;;;;;;6282394;28;20729;-54
2022/08/10 03:49:01;;;;;;;6.33;5.73;;;16.60;1.00;;;;;;6273264;28;20239;-54
2022/08/10 03:52:06;;;;;;;5.63;5.23;;;16.50;1.00;;;;;;6281645;28;20359;-55
2022/08/10 03:55:10;;;;;;;6.20;5.70;;;16.60;1.00;;;;;;6282449;28;20728;-54
2022/08/10 03:58:34;;;;;;;5.57;5.27;;;16.60;1.00;;;;;;6271967;28;20238;-54
2022/08/10 04:01:37;;;;;;;6.30;5.80;;;16.60;1.00;;;;;;6279674;28;20243;-55
2022/08/10 04:05:00;;;;;;;5.47;5.17;;;16.60;1.00;;;;;;6284533;28;20386;-54
2022/08/10 04:08:05;;;;;;;7.13;5.77;;;16.60;1.00;;;;;;6277346;28;20241;-55
2022/08/10 04:11:10;;;;;;;5.80;5.30;;;16.70;1.00;;;;;;6287274;28;20302;-55
2022/08/10 04:14:13;;;;;;;8.13;5.70;;;16.70;1.00;;;;;;6286123;28;20320;-54
2022/08/10 04:17:36;;;;;;;6.07;5.57;;;16.70;1.00;;;;;;6283473;28;20249;-54
2022/08/10 04:21:03;;;;;;;7.53;6.10;;;16.70;1.00;;;;;;6282997;28;20491;-55
2022/08/10 04:24:12;;;;;;;6.13;5.77;;;16.80;1.00;;;;;;6287434;28;20312;-54
2022/08/10 04:27:29;;;;;;;6.47;5.77;;;16.80;1.00;;;;;;6281667;28;20262;-55
2022/08/10 04:30:34;;;;;;;7.37;6.00;;;16.80;1.00;;;;;;6285441;28;20237;-53
2022/08/10 04:33:39;;;;;;;7.43;6.33;;;16.80;1.00;;;;;;6282786;28;20959;-54
2022/08/10 04:36:43;;;;;;;9.70;6.43;;;16.80;1.00;;;;;;6286646;28;20464;-54
2022/08/10 04:39:48;;;;;;;7.60;6.80;;;16.80;1.00;;;;;;6280499;28;20238;-56
2022/08/10 04:42:51;;;;;;;6.43;5.83;;;16.90;1.00;;;;;;6286003;28;20714;-53
2022/08/10 04:46:01;;;;;;;6.67;5.87;;;16.90;1.00;;;;;;6283092;28;20230;-55
2022/08/10 04:49:10;;;;;;;6.30;5.90;;;16.90;1.00;;;;;;6276900;28;20229;-53
2022/08/10 04:52:33;;;;;;;6.23;5.53;;;16.90;1.00;;;;;;6287171;28;20238;-55
2022/08/10 04:55:38;;;;;;;6.50;5.97;;;17.00;1.00;;;;;;6283022;28;20241;-55
2022/08/10 04:58:40;;;;;;;10.10;6.30;;;17.00;1.00;;;;;;6278631;28;20367;-54
2022/08/10 05:01:44;;;;;;;6.97;5.67;;;17.10;1.00;;;;;;6286197;28;20233;-54
2022/08/10 05:05:08;;;;;;;7.57;5.77;;;17.20;1.00;;;;;;6274023;28;20221;-55
2022/08/10 05:08:11;;;;;;;9.53;6.67;;;17.30;1.00;;;;;;6286039;28;20271;-54
2022/08/10 05:11:15;;;;;;;7.87;7.17;;;17.30;1.00;;;;;;6286118;28;20698;-53
2022/08/10 05:14:25;;;;;;;7.63;6.90;;;17.40;1.00;;;;;;6284001;28;20298;-54
2022/08/10 05:17:28;;;;;;;10.80;6.80;;;17.50;1.00;;;;;;6279962;28;20388;-54
2022/08/10 05:20:31;;;;;;;6.87;6.27;;;17.60;1.00;;;;;;6281907;28;20261;-53
2022/08/10 05:23:34;;;;;;;7.03;6.43;;;17.80;1.00;;;;;;6285337;28;20249;-51
2022/08/10 05:26:38;;;;;;;6.97;6.27;;;17.90;1.00;;;;;;6284276;28;20436;-54
2022/08/10 05:30:02;;;;;;;6.50;5.87;;;18.00;1.00;;;;;;6280940;28;20234;-54
2022/08/10 05:33:05;;;;;;;6.37;5.87;;;18.30;1.00;;;;;;6285489;28;20229;-54
2022/08/10 05:36:11;;;;;;;9.40;6.83;;;18.40;1.00;;;;;;6284667;28;20232;-55
2022/08/10 05:39:15;;;;;;;8.03;7.30;;;18.60;1.00;;;;;;6280231;28;20355;-54
2022/08/10 05:42:20;;;;;;;6.53;6.03;;;18.70;1.00;;;;;;6275444;28;20476;-55
2022/08/10 05:45:26;;;;;;;6.87;6.40;;;18.90;1.00;;;;;;6281032;28;20892;-54
2022/08/10 05:48:29;;;;;;;7.07;6.37;;;19.30;1.00;;;;;;6284541;28;20312;-55
2022/08/10 05:51:52;;;;;;;6.47;5.97;;;19.60;1.00;;;;;;6279158;28;20729;-54
2022/08/10 05:54:55;;;;;;;9.17;6.23;;;19.80;1.00;;;;;;6278305;28;20224;-54
2022/08/10 05:58:05;;;;;;;7.03;6.43;;;19.90;1.00;;;;;;6285024;28;20245;-54
2022/08/10 06:01:14;;;;;;;6.73;5.73;;;20.10;1.00;;;;;;6284128;28;20308;-55
2022/08/10 06:04:24;;;;;;;7.33;5.73;;;20.30;1.00;;;;;;6281957;28;20229;-53
2022/08/10 06:07:28;;;;;;;6.83;5.33;;;20.50;1.00;;;;;;6279767;28;20313;-54
2022/08/10 06:10:33;;;;;;;7.37;5.30;;;20.80;1.00;;;;;;6282203;28;20252;-54
2022/08/10 06:17:18;;;;;;;5.67;5.17;;;21.10;1.00;;;;;;6247644;28;20314;-55
2022/08/10 06:20:21;;;;;;;6.53;5.90;;;21.30;1.00;;;;;;6280823;28;20238;-54
2022/08/10 06:23:28;;;;;;;5.83;5.33;;;21.50;1.00;;;;;;6282340;28;20247;-54
2022/08/10 06:26:31;;;;;;;6.53;5.07;;;21.60;1.00;;;;;;6283652;28;20247;-54
2022/08/10 06:29:40;;;;;;;5.97;5.17;;;21.90;1.00;;;;;;6282396;28;20248;-53
2022/08/10 06:32:44;;;;;;;5.47;4.97;;;22.20;1.00;;;;;;6272744;28;20436;-54
2022/08/10 06:35:50;;;;;;;5.73;5.23;;;22.30;1.00;;;;;;6283680;28;20708;-53
2022/08/10 06:38:56;;;;;;;5.20;4.70;;;22.50;1.00;;;;;;6283878;28;20411;-53
2022/08/10 06:42:24;;;;;;;5.87;5.37;;;22.70;1.00;;;;;;6280673;28;20230;-55
2022/08/10 06:45:33;;;;;;;4.70;4.30;;;23.00;1.00;;;;;;6283477;28;20229;-54
2022/08/10 06:48:42;;;;;;;5.37;4.87;;;23.20;1.00;;;;;;6282536;28;20670;-55
2022/08/10 06:51:49;;;;;;;5.80;4.67;;;23.40;1.00;;;;;;6280713;28;20235;-54
2022/08/10 06:55:00;;;;;;;4.27;4.00;;;23.30;1.00;;;;;;6283390;28;20256;-54
2022/08/10 06:58:09;;;;;;;5.00;4.50;;;23.40;1.00;;;;;;6282638;28;20238;-55
2022/08/10 07:01:19;;;;;;;4.97;4.37;;;23.50;1.00;;;;;;6272276;28;20661;-55
2022/08/10 07:04:26;;;;;;;4.67;4.27;;;23.40;1.00;;;;;;6283492;28;20383;-54
2022/08/10 07:07:39;;;;;;;5.50;4.63;;;23.50;1.00;;;;;;6280452;28;20325;-54
2022/08/10 07:10:43;;;;;;;6.53;5.20;;;23.50;1.00;;;;;;6282793;28;20244;-56
2022/08/10 07:13:48;;;;;;;4.87;4.60;;;23.60;1.00;;;;;;6283510;28;20260;-54
2022/08/10 07:17:16;;;;;;;5.10;4.60;;;23.60;1.00;;;;;;6279331;28;20245;-54
2022/08/10 07:20:20;;;;;;;6.07;3.93;;;23.50;1.00;;;;;;6282622;28;20687;-55
2022/08/10 07:23:24;;;;;;;4.63;4.37;;;23.60;1.00;;;;;;6279464;28;20543;-54
2022/08/10 07:26:53;;;;;;;4.73;4.30;;;23.70;1.00;;;;;;6281255;28;20247;-55
2022/08/10 07:29:57;;;;;;;4.63;4.23;;;23.70;1.00;;;;;;6282923;28;20731;-54
2022/08/10 07:33:04;;;;;;;4.63;4.30;;;23.70;1.00;;;;;;6280971;28;20395;-54
2022/08/10 07:36:10;;;;;;;4.30;3.97;;;23.70;1.00;;;;;;6253284;28;20321;-55
2022/08/10 07:39:14;;;;;;;7.17;4.57;;;23.70;1.00;;;;;;6281177;28;20531;-54
2022/08/10 07:42:39;;;;;;;4.50;4.20;;;23.60;1.00;;;;;;6281490;28;20244;-55
2022/08/10 07:45:48;;;;;;;4.60;4.20;;;23.60;1.00;;;;;;6280659;28;20226;-54
2022/08/10 07:49:02;;;;;;;5.30;3.97;;;23.60;1.00;;;;;;6282454;28;20407;-54
2022/08/10 07:52:22;;;;;;;5.63;3.70;;;23.50;1.00;;;;;;6281740;28;20268;-54
2022/08/10 07:55:25;;;;;;;3.97;3.73;;;23.50;1.00;;;;;;6283146;28;20419;-53
2022/08/10 07:58:50;;;;;;;5.13;4.30;;;23.50;1.00;;;;;;6268677;28;20245;-61
2022/08/10 08:01:57;;;;;;;9.27;4.90;;;23.50;1.00;;;;;;6275446;28;20229;-53
2022/08/10 08:05:05;;;;;;;3.97;3.73;;;23.50;1.00;;;;;;6246560;28;20746;-53
2022/08/10 08:08:10;;;;;;;6.00;4.30;;;23.50;1.00;;;;;;6282118;28;20310;-53
2022/08/10 08:11:14;;;;;;;4.13;3.83;;;23.50;1.00;;;;;;6282003;28;20264;-54
2022/08/10 08:14:29;;;;;;;4.03;3.73;;;23.50;1.00;;;;;;6282292;28;20230;-53
2022/08/10 08:17:33;;;;;;;5.00;3.80;;;23.40;1.00;;;;;;6271947;28;20583;-54
2022/08/10 08:20:40;;;;;;;5.83;3.87;;;23.50;1.00;;;;;;6275668;28;20608;-53
2022/08/10 08:23:48;;;;;;;7.33;3.90;;;23.50;1.00;;;;;;6273957;28;20247;-53
2022/08/10 08:27:13;;;;;;;4.27;3.53;;;23.50;1.00;;;;;;6282103;28;20226;-54
2022/08/10 08:30:16;;;;;;;4.03;3.80;;;23.50;1.00;;;;;;6281270;28;20241;-53
2022/08/10 08:33:31;;;;;;;6.13;3.80;;;23.60;1.00;;;;;;6279789;28;20267;-54
2022/08/10 08:36:48;;;;;;;4.10;3.60;;;23.70;1.00;;;;;;6280861;28;20241;-55
2022/08/10 08:39:51;;;;;;;7.50;3.83;;;23.70;1.00;;;;;;6282015;28;20514;-55
2022/08/10 08:43:23;;;;;;;3.97;3.67;;;23.70;1.00;;;;;;6279091;28;20233;-54
2022/08/10 08:46:57;;;;;;;4.23;3.93;;;23.80;1.00;;;;;;6280712;28;20283;-55
2022/08/10 08:50:31;;;;;;;3.30;3.17;;;24.00;1.00;;;;;;6269237;28;20240;-54
2022/08/10 08:53:58;;;;;;;3.30;3.20;;;24.20;1.00;;;;;;6257337;28;20585;-49
2022/08/10 08:57:14;;;;;;;3.97;2.97;;;24.30;1.00;;;;;;6281415;28;20222;-54
2022/08/10 09:00:43;;;;;;;3.97;3.67;;;24.30;1.00;;;;;;6277981;28;20237;-54
2022/08/10 09:04:07;;;;;;;3.47;3.20;;;24.40;1.00;;;;;;6283928;28;20218;-53
2022/08/10 09:07:55;;;;;;;3.80;3.43;;;24.50;1.00;;;;;;6284680;28;20241;-55
2022/08/10 09:11:21;;;;;;;3.63;3.43;;;24.70;1.00;;;;;;6257815;28;20236;-66
2022/08/10 09:14:30;;;;;;;4.50;4.10;;;24.80;1.00;;;;;;6285469;28;20789;-54
2022/08/10 09:17:44;;;;;;;4.23;3.77;;;24.90;1.00;;;;;;6282597;28;20241;-54
2022/08/10 09:20:53;;;;;;;3.13;3.03;;;25.00;1.00;;;;;;6280646;28;20456;-55
2022/08/10 09:24:02;;;;;;;4.43;2.83;;;25.10;1.00;;;;;;6276435;28;20232;-54
2022/08/10 09:27:15;;;;;;;3.50;3.20;;;25.20;1.00;;;;;;6285306;28;20240;-54
2022/08/10 09:30:26;;;;;;;2.93;2.83;;;25.20;1.00;;;;;;6283849;28;20322;-55
2022/08/10 09:33:46;;;;;;;3.27;3.00;;;25.30;1.00;;;;;;6281585;28;20283;-54
2022/08/10 09:37:20;;;;;;;3.53;2.63;;;25.30;1.00;;;;;;6280263;28;20893;-55
2022/08/10 09:40:29;;;;;;;2.23;2.07;;;25.30;1.00;;;;;;6274415;28;20698;-53
2022/08/10 09:44:00;;;;;;;3.20;1.90;;;25.40;1.00;;;;;;6278195;28;20229;-55
2022/08/10 09:47:31;;;;;;;2.63;2.27;;;25.40;1.00;;;;;;6285293;28;20241;-55
2022/08/10 09:51:00;;;;;;;2.23;2.13;;;25.40;1.00;;;;;;6275670;28;20243;-54
2022/08/10 09:54:47;;;;;;;2.43;2.33;;;25.40;1.00;;;;;;6287365;28;20324;-54
2022/08/10 09:58:00;;;;;;;2.70;2.50;;;25.50;1.00;;;;;;6284892;28;20318;-53
2022/08/10 10:01:13;;;;;;;2.53;2.33;;;25.70;1.00;;;;;;6279960;28;20324;-54
2022/08/10 10:04:44;;;;;;;2.13;2.03;;;25.90;1.00;;;;;;6285227;28;20237;-54
2022/08/10 10:07:57;;;;;;;2.70;2.60;;;26.00;1.00;;;;;;6279733;28;20321;-53
2022/08/10 10:11:10;;;;;;;1.90;1.90;;;26.00;1.00;;;;;;6279577;28;20425;-56
2022/08/10 10:14:23;;;;;;;3.03;2.30;;;26.10;1.00;;;;;;6283497;28;20546;-55
2022/08/10 10:17:40;;;;;;;2.40;2.20;;;26.20;1.00;;;;;;6278577;28;20243;-56
2022/08/10 10:20:55;;;;;;;2.83;2.20;;;26.30;1.00;;;;;;6275885;28;20272;-56
2022/08/10 10:24:13;;;;;;;2.23;2.13;;;26.40;1.00;;;;;;6283690;28;20246;-54
2022/08/10 10:27:36;;;;;;;2.13;1.90;;;26.50;1.00;;;;;;6279650;28;20226;-53
2022/08/10 10:30:50;;;;;;;2.73;2.53;;;26.60;1.00;;;;;;6283241;28;20241;-55
2022/08/10 10:34:06;;;;;;;2.23;2.23;;;26.80;1.00;;;;;;6277579;28;20225;-54
2022/08/10 10:37:11;;;;;;;2.33;2.17;;;26.80;1.00;;;;;;6279617;28;20264;-55
2022/08/10 10:40:15;;;;;;;2.67;2.47;;;26.80;1.00;;;;;;6283097;28;20298;-54
2022/08/10 10:43:33;;;;;;;2.30;2.20;;;26.80;1.00;;;;;;6282669;28;20286;-55
2022/08/10 10:46:53;;;;;;;4.40;2.30;;;26.80;1.00;;;;;;6275342;28;20260;-54
2022/08/10 10:50:06;;;;;;;3.33;2.50;;;26.90;1.00;;;;;;6281612;28;20253;-53
2022/08/10 10:53:18;;;;;;;4.37;2.20;;;27.00;1.00;;;;;;6283778;28;20855;-54
2022/08/10 10:56:30;;;;;;;2.30;2.20;;;27.10;1.00;;;;;;6282241;28;20678;-54
2022/08/10 10:59:41;;;;;;;2.20;2.10;;;27.20;1.00;;;;;;6274442;28;20251;-51
2022/08/10 11:03:18;;;;;;;2.37;2.17;;;27.30;1.00;;;;;;6279288;28;20266;-54
2022/08/10 11:06:33;;;;;;;2.27;2.17;;;27.30;1.00;;;;;;6279838;28;20233;-56
2022/08/10 11:09:46;;;;;;;2.30;2.20;;;27.30;1.00;;;;;;6273753;28;20723;-55
2022/08/10 11:13:25;;;;;;;2.17;2.07;;;27.30;1.00;;;;;;6278138;28;20473;-54
2022/08/10 11:16:51;;;;;;;2.50;2.37;;;27.30;1.00;;;;;;6273509;28;20230;-54
2022/08/10 11:20:10;;;;;;;2.80;2.70;;;27.30;1.00;;;;;;6274289;28;20462;-56
2022/08/10 11:23:22;;;;;;;2.20;2.20;;;27.30;1.00;;;;;;6282670;28;20237;-54
2022/08/10 11:26:29;;;;;;;2.67;2.63;;;27.40;1.00;;;;;;6281659;28;20320;-54
2022/08/10 11:29:35;;;;;;;4.70;2.30;;;27.50;1.00;;;;;;6276721;28;20264;-54
2022/08/10 11:32:51;;;;;;;3.07;2.70;;;27.40;1.00;;;;;;6282051;28;20248;-54
2022/08/10 11:36:10;;;;;;;2.80;2.60;;;27.40;1.00;;;;;;6275905;28;20249;-54
2022/08/10 11:39:23;;;;;;;2.23;2.23;;;27.40;1.00;;;;;;6280517;28;20237;-55
2022/08/10 11:42:34;;;;;;;5.20;2.50;;;27.50;1.00;;;;;;6283008;28;20233;-53
2022/08/10 11:45:42;;;;;;;2.77;2.20;;;27.60;1.00;;;;;;6276168;28;20226;-55
2022/08/10 11:49:03;;;;;;;2.60;2.40;;;27.80;1.00;;;;;;6276266;28;20233;-53
2022/08/10 11:52:13;;;;;;;2.23;2.10;;;28.00;1.00;;;;;;6282419;28;20225;-54
2022/08/10 11:55:20;;;;;;;2.63;2.43;;;28.20;1.00;;;;;;6277100;28;20589;-55
2022/08/10 12:01:50;;;;;;;2.63;2.47;;;28.20;1.00;;;;;;6275608;28;20399;-59
2022/08/10 12:04:58;;;;;;;2.63;2.40;;;28.30;1.00;;;;;;6280256;28;20264;-53
2022/08/10 12:08:02;;;;;;;2.30;2.20;;;28.30;1.00;;;;;;6283552;28;20764;-54
2022/08/10 12:11:28;;;;;;;2.67;2.57;;;28.40;1.00;;;;;;6274022;28;20248;-55
2022/08/10 12:14:35;;;;;;;2.87;2.67;;;28.50;1.00;;;;;;6283264;28;20602;-54
2022/08/10 12:17:45;;;;;;;4.70;3.40;;;28.40;1.00;;;;;;6282700;28;20321;-54
2022/08/10 12:20:53;;;;;;;2.77;2.33;;;28.50;1.00;;;;;;6275679;28;20242;-54
2022/08/10 12:23:59;;;;;;;2.57;2.47;;;28.50;1.00;;;;;;6282355;28;20308;-54
2022/08/10 12:27:11;;;;;;;2.67;2.57;;;28.30;1.00;;;;;;6279951;28;20493;-53
2022/08/10 12:30:17;;;;;;;2.47;2.27;;;28.30;1.00;;;;;;6286990;28;20233;-53
2022/08/10 12:33:24;;;;;;;2.80;2.70;;;28.30;1.00;;;;;;6284048;28;20506;-54
2022/08/10 12:36:32;;;;;;;2.37;2.27;;;28.30;1.00;;;;;;6284906;28;20276;-54
2022/08/10 12:39:42;;;;;;;2.53;2.33;;;28.20;1.00;;;;;;6285530;28;20241;-54
2022/08/10 12:42:52;;;;;;;2.57;2.53;;;28.30;1.00;;;;;;6257223;28;20282;-53
2022/08/10 12:46:25;;;;;;;4.03;2.47;;;28.40;1.00;;;;;;6279589;28;20306;-54
2022/08/10 12:49:34;;;;;;;2.53;2.40;;;28.30;1.00;;;;;;6286305;28;20250;-53
2022/08/10 12:52:44;;;;;;;2.33;2.10;;;28.30;1.00;;;;;;6279865;28;20303;-54
2022/08/10 12:55:49;;;;;;;2.80;2.63;;;28.50;1.00;;;;;;6286449;28;20707;-55
2022/08/10 12:58:55;;;;;;;2.23;2.23;;;28.60;1.00;;;;;;6279356;28;20245;-53
2022/08/10 13:02:03;;;;;;;5.37;2.20;;;28.50;1.00;;;;;;6280863;28;21639;-53
2022/08/10 13:05:14;;;;;;;2.53;2.43;;;28.60;1.00;;;;;;6285784;28;20295;-55
2022/08/10 13:11:46;;;;;;;1.97;1.97;;;28.70;1.00;;;;;;6285844;28;20304;-55
2022/08/10 13:15:17;;;;;;;2.17;2.10;;;28.80;1.00;;;;;;6285684;28;20229;-53
2022/08/10 13:18:44;;;;;;;2.10;2.10;;;28.80;1.00;;;;;;6285449;28;20247;-53
2022/08/10 13:21:49;;;;;;;2.10;2.00;;;28.80;1.00;;;;;;6285639;28;20437;-55
2022/08/10 13:24:54;;;;;;;2.70;2.13;;;28.80;1.00;;;;;;6276978;28;20284;-54
2022/08/10 13:28:03;;;;;;;2.50;2.37;;;28.90;1.00;;;;;;6285991;28;20252;-55
2022/08/10 13:31:31;;;;;;;2.20;2.10;;;28.90;1.00;;;;;;6285892;28;20272;-54
2022/08/10 13:34:56;;;;;;;2.60;2.50;;;28.90;1.00;;;;;;6282926;28;20229;-54
2022/08/10 13:38:01;;;;;;;2.87;2.53;;;28.90;1.00;;;;;;6285158;28;20233;-55
2022/08/10 13:41:05;;;;;;;2.37;2.27;;;28.90;1.00;;;;;;6279352;28;20532;-54
2022/08/10 13:44:12;;;;;;;2.67;2.57;;;28.90;1.00;;;;;;6284777;28;20288;-54
2022/08/10 13:47:19;;;;;;;3.30;2.47;;;29.00;1.00;;;;;;6285736;28;20441;-55
2022/08/10 13:50:24;;;;;;;2.13;2.10;;;29.10;1.00;;;;;;6280460;28;20237;-55
2022/08/10 13:53:37;;;;;;;4.03;2.00;;;29.30;1.00;;;;;;6284392;28;20243;-54
2022/08/10 13:56:44;;;;;;;2.17;2.07;;;29.30;1.00;;;;;;6284521;28;20229;-54
2022/08/10 13:59:49;;;;;;;2.10;1.93;;;29.40;1.00;;;;;;6276837;28;20240;-54
2022/08/10 14:03:15;;;;;;;3.70;2.40;;;29.30;1.00;;;;;;6280868;28;20276;-55
2022/08/10 14:06:23;;;;;;;2.23;2.13;;;29.30;1.00;;;;;;6284439;28;20817;-55
2022/08/10 14:09:32;;;;;;;2.53;2.38;;;29.40;1.00;;;;;;6287100;28;20737;-54
2022/08/10 14:12:38;;;;;;;2.67;2.35;;;29.40;1.00;;;;;;6282126;28;20480;-54
2022/08/10 14:15:44;;;;;;;2.10;2.05;;;29.40;1.00;;;;;;6282588;28;20240;-55
2022/08/10 14:18:51;;;;;;;2.45;2.45;;;29.50;1.00;;;;;;6274806;28;20312;-55
2022/08/10 14:21:55;;;;;;;2.47;2.33;;;29.40;1.00;;;;;;6278299;28;20237;-53
2022/08/10 14:25:08;;;;;;;2.78;2.60;;;29.40;1.00;;;;;;6284056;28;20343;-53
2022/08/10 14:28:13;;;;;;;2.63;2.43;;;29.30;1.00;;;;;;6284215;28;20310;-55
2022/08/10 14:31:20;;;;;;;3.37;2.50;;;29.30;1.00;;;;;;6284256;28;20255;-54
2022/08/10 14:34:30;;;;;;;2.50;2.40;;;29.30;1.00;;;;;;6282288;28;20234;-54
2022/08/10 14:37:57;;;;;;;2.40;2.30;;;29.30;1.00;;;;;;6284586;28;20233;-53
2022/08/10 14:41:03;;;;;;;4.03;2.10;;;29.10;1.00;;;;;;6284620;28;20364;-53
2022/08/10 14:44:09;;;;;;;3.23;2.33;;;29.20;1.00;;;;;;6281015;28;20229;-55
2022/08/10 14:47:15;;;;;;;2.60;2.50;;;29.10;1.00;;;;;;6278962;28;20598;-54
2022/08/10 14:50:40;;;;;;;2.37;2.27;;;29.20;1.00;;;;;;6282684;28;20244;-54
2022/08/10 14:54:03;;;;;;;2.27;2.17;;;29.40;1.00;;;;;;6285055;28;20240;-53
2022/08/10 14:57:10;;;;;;;2.53;2.42;;;29.40;1.00;;;;;;6284522;28;20225;-54
2022/08/10 15:00:18;;;;;;;2.92;2.70;;;29.50;1.00;;;;;;6274470;28;20734;-55
2022/08/10 15:03:42;;;;;;;3.93;2.50;;;29.60;1.00;;;;;;6284242;28;20237;-54
2022/08/10 15:07:11;;;;;;;2.47;2.38;;;29.40;1.00;;;;;;6277289;28;20268;-54
2022/08/10 15:10:20;;;;;;;3.20;2.43;;;29.40;1.00;;;;;;6279151;28;20244;-53
2022/08/10 15:13:24;;;;;;;2.33;2.23;;;29.40;1.00;;;;;;6283663;28;20647;-55
2022/08/10 15:16:37;;;;;;;2.27;2.13;;;29.40;1.00;;;;;;6282014;28;20256;-53
2022/08/10 15:19:51;;;;;;;2.87;2.70;;;29.30;1.00;;;;;;6282184;28;20302;-53
2022/08/10 15:23:09;;;;;;;2.80;2.60;;;29.30;1.00;;;;;;6281531;28;20237;-54
2022/08/10 15:26:34;;;;;;;3.37;2.77;;;29.20;1.00;;;;;;6283680;28;20259;-54
2022/08/10 15:29:38;;;;;;;6.40;2.77;;;29.20;1.00;;;;;;6281312;28;20301;-55
2022/08/10 15:40:31;;;;;;;2.85;2.65;;;29.10;1.00;;;;;;6274544;28;20238;-54
2022/08/10 15:43:54;;;;;;;2.72;2.60;;;29.80;1.00;;;;;;6275591;28;20248;-54
2022/08/10 15:47:01;;;;;;;2.47;2.20;;;30.30;1.00;;;;;;6283319;28;20249;-54
2022/08/10 15:50:08;;;;;;;2.47;2.25;;;30.30;1.00;;;;;;6282975;28;20654;-54
2022/08/10 15:53:15;;;;;;;2.15;1.98;;;30.30;1.00;;;;;;6283082;28;20233;-54
2022/08/10 15:56:27;;;;;;;2.53;2.17;;;30.20;1.00;;;;;;6279704;28;20319;-55
2022/08/10 15:59:33;;;;;;;4.43;2.60;;;30.10;1.00;;;;;;6281242;28;20706;-54
2022/08/10 16:02:45;;;;;;;2.50;2.50;;;29.80;1.00;;;;;;6285929;28;20294;-53
2022/08/10 16:05:52;;;;;;;2.40;2.20;;;29.70;1.00;;;;;;6276611;28;20308;-55
2022/08/10 16:09:08;;;;;;;2.63;2.42;;;29.50;1.00;;;;;;6286945;28;20272;-54
2022/08/10 16:12:36;;;;;;;2.23;2.10;;;29.30;1.00;;;;;;6284676;28;20256;-54
2022/08/10 16:15:42;;;;;;;2.53;2.42;;;29.10;1.00;;;;;;6283529;28;20245;-53
2022/08/10 16:18:47;;;;;;;2.60;2.40;;;29.00;1.00;;;;;;6286150;28;20659;-50
2022/08/10 16:22:00;;;;;;;3.57;2.80;;;28.80;1.00;;;;;;6287284;28;20328;-53
2022/08/10 16:25:11;;;;;;;3.37;2.60;;;28.70;1.00;;;;;;6288500;28;20240;-53
2022/08/10 16:28:16;;;;;;;2.40;2.40;;;28.50;1.00;;;;;;6290063;28;20443;-54
2022/08/10 16:31:30;;;;;;;2.90;2.40;;;28.40;1.00;;;;;;6276848;28;20652;-53
2022/08/10 16:34:36;;;;;;;4.37;3.03;;;28.30;1.00;;;;;;6285383;28;20369;-53
2022/08/10 16:37:40;;;;;;;3.20;2.90;;;28.20;1.00;;;;;;6286698;28;20245;-55
2022/08/10 16:41:01;;;;;;;4.10;2.87;;;28.10;1.00;;;;;;6256783;28;20245;-55
2022/08/10 16:44:06;;;;;;;4.57;2.77;;;28.00;1.00;;;;;;6287178;28;20316;-53
2022/08/10 16:47:12;;;;;;;2.80;2.60;;;27.90;1.00;;;;;;6286990;28;20229;-54
2022/08/10 16:50:22;;;;;;;2.60;2.50;;;27.70;1.00;;;;;;6285837;28;20444;-54
2022/08/10 16:53:27;;;;;;;2.70;2.60;;;27.70;1.00;;;;;;6286102;28;20275;-54
2022/08/10 16:56:35;;;;;;;2.83;2.50;;;27.50;1.00;;;;;;6286358;28;20816;-54
2022/08/10 16:59:54;;;;;;;2.80;2.70;;;27.50;1.00;;;;;;6282419;28;20272;-53
2022/08/10 17:03:04;;;;;;;2.73;2.53;;;27.40;1.00;;;;;;6285786;28;20468;-55
2022/08/10 17:06:30;;;;;;;2.57;2.40;;;27.30;1.00;;;;;;6281030;28;20507;-57
2022/08/10 17:09:37;;;;;;;5.20;2.77;;;27.20;1.00;;;;;;6286403;28;20244;-54